createdAt,value
2022-08-09T00:02:14.184Z,3.60
2022-08-09T00:06:18.272Z,4.57
2022-08-09T00:09:58.449Z,5.72
2022-08-09T00:13:40.889Z,5.95
2022-08-09T00:18:06.044Z,4.70
2022-08-09T00:21:27.387Z,4.95
2022-08-09T00:25:12.831Z,4.63
2022-08-09T00:28:55.679Z,4.50
2022-08-09T00:32:40.016Z,4.35
2022-08-09T00:36:29.677Z,4.13
2022-08-09T00:40:17.356Z,3.80
2022-08-09T00:44:15.308Z,4.80
2022-08-09T00:48:05.603Z,3.60
2022-08-09T00:51:54.252Z,3.65
2022-08-09T00:56:05.741Z,2.80
2022-08-09T00:59:46.678Z,4.22
2022-08-09T01:03:48.221Z,8.25
2022-08-09T01:08:00.627Z,6.07
2022-08-09T01:11:56.183Z,5.60
2022-08-09T01:15:52.116Z,5.57
2022-08-09T01:19:57.102Z,4.85
2022-08-09T01:24:01.698Z,5.03
2022-08-09T01:27:52.548Z,3.13
2022-08-09T01:32:29.681Z,5.20
2022-08-09T01:35:46.163Z,6.53
2022-08-09T01:39:35.763Z,4.85
2022-08-09T01:43:19.258Z,5.72
2022-08-09T01:47:07.428Z,5.28
2022-08-09T01:50:55.549Z,5.00
2022-08-09T01:54:48.496Z,4.82
2022-08-09T01:58:32.380Z,7.57
2022-08-09T02:02:16.937Z,5.45
2022-08-09T02:06:06.335Z,5.25
2022-08-09T02:10:04.119Z,4.32
2022-08-09T02:14:07.405Z,4.50
2022-08-09T02:18:00.908Z,4.25
2022-08-09T02:21:57.850Z,4.35
2022-08-09T02:25:49.456Z,5.30
2022-08-09T02:29:43.101Z,4.07
2022-08-09T02:33:58.674Z,4.32
2022-08-09T02:37:33.095Z,5.97
2022-08-09T02:41:47.237Z,5.70
2022-08-09T02:45:35.486Z,5.55
2022-08-09T02:49:38.377Z,4.45
2022-08-09T02:53:27.173Z,6.65
2022-08-09T02:57:14.131Z,6.28
2022-08-09T03:04:52.176Z,5.13
2022-08-09T03:08:35.535Z,6.28
2022-08-09T03:12:18.827Z,4.65
2022-08-09T03:16:06.873Z,5.05
2022-08-09T03:19:58.092Z,6.97
2022-08-09T03:24:03.976Z,5.88
2022-08-09T03:27:52.852Z,6.50
2022-08-09T03:31:42.633Z,5.00
2022-08-09T03:36:13.892Z,6.43
2022-08-09T03:39:48.589Z,6.18
2022-08-09T03:43:37.836Z,6.35
2022-08-09T03:47:19.639Z,5.60
2022-08-09T03:51:05.152Z,6.50
2022-08-09T03:55:09.821Z,5.97
2022-08-09T03:58:52.003Z,8.63
2022-08-09T04:02:38.111Z,6.65
2022-08-09T04:06:27.020Z,5.80
2022-08-09T04:10:09.840Z,5.18
2022-08-09T04:14:59.111Z,6.60
2022-08-09T04:17:54.116Z,4.72
2022-08-09T04:21:41.900Z,6.00
2022-08-09T04:25:23.861Z,5.20
2022-08-09T04:29:13.356Z,7.18
2022-08-09T04:32:56.951Z,5.07
2022-08-09T04:36:40.405Z,8.40
2022-08-09T04:40:56.436Z,8.30
2022-08-09T04:44:39.216Z,5.20
2022-08-09T04:48:33.425Z,5.22
2022-08-09T04:52:18.391Z,8.05
2022-08-09T04:56:09.198Z,5.50
2022-08-09T04:59:54.246Z,5.60
2022-08-09T05:03:42.729Z,5.50
2022-08-09T05:07:29.386Z,5.68
2022-08-09T05:11:13.964Z,5.70
2022-08-09T05:14:57.616Z,6.50
2022-08-09T05:18:58.337Z,5.13
2022-08-09T05:23:55.003Z,6.80
2022-08-09T05:26:45.702Z,4.35
2022-08-09T05:30:31.243Z,5.27
2022-08-09T05:34:16.475Z,7.13
2022-08-09T05:37:59.311Z,6.28
2022-08-09T05:41:41.231Z,5.93
2022-08-09T05:45:24.836Z,4.97
2022-08-09T05:49:07.403Z,5.43
2022-08-09T05:53:21.444Z,6.35
2022-08-09T05:57:12.710Z,7.97
2022-08-09T06:00:55.940Z,8.77
2022-08-09T06:04:44.721Z,8.25
2022-08-09T06:08:28.057Z,7.72
2022-08-09T06:12:10.508Z,7.50
2022-08-09T06:15:53.432Z,7.78
2022-08-09T06:19:36.890Z,6.50
2022-08-09T06:23:18.854Z,5.72
2022-08-09T06:27:00.832Z,5.80
2022-08-09T06:30:43.365Z,7.22
2022-08-09T06:34:26.239Z,6.10
2022-08-09T06:38:11.802Z,7.32
2022-08-09T06:42:08.959Z,6.32
2022-08-09T06:46:06.833Z,6.55
2022-08-09T06:50:13.267Z,8.30
2022-08-09T06:53:55.811Z,7.75
2022-08-09T06:58:02.175Z,8.68
2022-08-09T07:01:54.229Z,9.82
2022-08-09T07:06:02.459Z,7.97
2022-08-09T07:09:59.590Z,6.70
2022-08-09T07:14:05.062Z,9.57
2022-08-09T07:17:56.121Z,9.57
2022-08-09T07:21:55.448Z,12.27
2022-08-09T07:25:43.384Z,12.77
2022-08-09T07:29:25.983Z,16.52
2022-08-09T07:33:16.387Z,8.02
2022-08-09T07:36:58.571Z,6.82
2022-08-09T07:41:08.181Z,10.73
2022-08-09T07:44:51.147Z,8.45
2022-08-09T07:48:36.554Z,9.52
2022-08-09T07:56:06.431Z,8.15
2022-08-09T08:00:03.097Z,5.63
2022-08-09T08:03:45.943Z,7.93
2022-08-09T08:08:43.723Z,9.88
2022-08-09T08:12:19.775Z,7.72
2022-08-09T08:15:35.565Z,7.88
2022-08-09T08:19:20.409Z,10.20
2022-08-09T08:23:15.872Z,9.95
2022-08-09T08:26:59.838Z,8.98
2022-08-09T08:30:42.850Z,7.32
2022-08-09T08:34:25.606Z,7.63
2022-08-09T08:38:11.602Z,7.40
2022-08-09T08:41:54.346Z,8.65
2022-08-09T08:45:53.605Z,6.85
2022-08-09T08:49:49.355Z,6.17
2022-08-09T08:53:37.031Z,5.03
2022-08-09T08:57:20.992Z,9.10
2022-08-09T09:01:09.083Z,7.60
2022-08-09T09:05:05.929Z,6.82
2022-08-09T09:08:59.414Z,6.72
2022-08-09T09:12:44.456Z,5.22
2022-08-09T09:16:34.130Z,4.60
2022-08-09T09:20:16.593Z,4.93
2022-08-09T09:24:10.339Z,5.68
2022-08-09T09:28:10.638Z,5.75
2022-08-09T09:32:06.475Z,4.03
2022-08-09T09:36:03.637Z,2.97
2022-08-09T09:39:57.154Z,2.97
2022-08-09T09:44:11.721Z,2.58
2022-08-09T09:47:56.199Z,3.03
2022-08-09T09:51:41.664Z,2.45
2022-08-09T09:55:31.387Z,2.35
2022-08-09T09:59:20.720Z,2.42
2022-08-09T10:03:11.407Z,0.90
2022-08-09T10:06:55.633Z,3.03
2022-08-09T10:10:39.441Z,1.63
2022-08-09T10:14:33.372Z,1.55
2022-08-09T10:18:15.952Z,2.08
2022-08-09T10:21:59.950Z,1.75
2022-08-09T10:26:07.712Z,1.65
2022-08-09T10:30:28.329Z,2.45
2022-08-09T10:34:10.954Z,1.67
2022-08-09T10:37:51.967Z,2.93
2022-08-09T10:41:35.204Z,2.20
2022-08-09T10:45:17.852Z,0.85
2022-08-09T10:49:10.535Z,1.00
2022-08-09T10:53:11.749Z,1.85
2022-08-09T10:57:09.445Z,1.38
2022-08-09T11:03:02.940Z,0.75
2022-08-09T11:05:25.162Z,0.82
2022-08-09T11:09:17.506Z,4.45
2022-08-09T11:13:49.243Z,0.30
2022-08-09T11:17:22.247Z,0.77
2022-08-09T11:21:05.615Z,0.82
2022-08-09T11:24:57.882Z,0.90
2022-08-09T11:28:56.073Z,1.25
2022-08-09T11:32:42.831Z,1.27
2022-08-09T11:36:35.318Z,1.40
2022-08-09T11:40:29.872Z,6.93
2022-08-09T11:44:13.480Z,2.35
2022-08-09T11:48:05.247Z,1.10
2022-08-09T11:53:55.123Z,4.32
2022-08-09T11:56:15.147Z,4.07
2022-08-09T12:00:13.062Z,1.13
2022-08-09T12:04:03.373Z,0.60
2022-08-09T12:07:47.264Z,3.33
2022-08-09T12:11:31.472Z,1.97
2022-08-09T12:15:50.323Z,8.50
2022-08-09T12:19:32.039Z,1.27
2022-08-09T12:23:14.161Z,0.73
2022-08-09T12:29:12.150Z,2.08
2022-08-09T12:32:02.566Z,2.90
2022-08-09T12:35:41.797Z,0.70
2022-08-09T12:39:24.877Z,2.17
2022-08-09T12:43:09.696Z,1.25
2022-08-09T12:46:51.653Z,1.10
2022-08-09T12:50:35.921Z,1.08
2022-08-09T12:54:19.064Z,0.90
2022-08-09T12:58:12.303Z,3.13
2022-08-09T13:02:09.898Z,0.88
2022-08-09T13:06:14.307Z,1.23
2022-08-09T13:10:04.246Z,1.30
2022-08-09T13:14:37.880Z,1.08
2022-08-09T13:18:04.985Z,1.08
2022-08-09T13:22:35.194Z,2.53
2022-08-09T13:25:53.349Z,0.83
2022-08-09T13:30:02.859Z,0.80
2022-08-09T13:33:53.479Z,1.00
2022-08-09T13:37:51.052Z,3.60
2022-08-09T13:41:59.139Z,1.08
2022-08-09T13:46:42.579Z,0.60
2022-08-09T13:49:56.286Z,0.93
2022-08-09T13:53:43.618Z,0.82
2022-08-09T13:57:35.755Z,1.15
2022-08-09T14:01:56.607Z,1.10
2022-08-09T14:05:58.820Z,2.10
2022-08-09T14:09:25.544Z,1.23
2022-08-09T14:13:12.085Z,1.45
2022-08-09T14:17:03.809Z,0.70
2022-08-09T14:20:46.801Z,2.05
2022-08-09T14:24:32.420Z,0.60
2022-08-09T14:28:15.452Z,0.90
2022-08-09T14:32:04.647Z,1.80
2022-08-09T14:35:53.586Z,1.15
2022-08-09T14:39:45.795Z,2.05
2022-08-09T14:43:47.514Z,1.65
2022-08-09T14:47:45.270Z,1.30
2022-08-09T14:51:31.365Z,2.28
2022-08-09T14:55:24.560Z,2.60
2022-08-09T14:59:08.631Z,3.70
2022-08-09T15:02:56.399Z,1.95
2022-08-09T15:06:40.264Z,2.93
2022-08-09T15:10:24.989Z,1.60
2022-08-09T15:14:13.271Z,3.50
2022-08-09T15:17:56.029Z,1.45
2022-08-09T15:22:01.230Z,1.42
2022-08-09T15:25:41.462Z,2.13
2022-08-09T15:30:58.819Z,3.40
2022-08-09T15:34:15.436Z,1.05
2022-08-09T15:37:57.322Z,1.10
2022-08-09T15:41:42.213Z,1.92
2022-08-09T15:45:29.877Z,1.00
2022-08-09T15:49:22.704Z,1.20
2022-08-09T15:53:06.664Z,1.25
2022-08-09T15:57:00.429Z,1.88
2022-08-09T16:00:42.507Z,1.20
2022-08-09T16:04:27.306Z,1.90
2022-08-09T16:08:24.762Z,1.65
2022-08-09T16:12:12.550Z,1.55
2022-08-09T16:20:04.771Z,1.65
2022-08-09T16:23:55.036Z,1.88
2022-08-09T16:27:38.565Z,4.57
2022-08-09T16:32:10.361Z,3.20
2022-08-09T16:35:39.191Z,2.90
2022-08-09T16:39:27.051Z,1.25
2022-08-09T16:43:22.252Z,2.30
2022-08-09T16:48:39.026Z,1.20
2022-08-09T16:51:08.029Z,1.90
2022-08-09T16:54:50.611Z,1.88
2022-08-09T16:58:35.649Z,1.73
2022-08-09T17:02:17.991Z,2.30
2022-08-09T17:06:32.088Z,1.00
2022-08-09T17:10:12.332Z,2.83
2022-08-09T17:17:50.294Z,4.47
2022-08-09T17:21:33.167Z,2.83
2022-08-09T17:25:15.370Z,2.28
2022-08-09T17:28:57.204Z,1.08
2022-08-09T17:32:39.689Z,2.85
2022-08-09T17:36:26.327Z,2.40
2022-08-09T17:40:16.931Z,1.88
2022-08-09T17:44:38.564Z,1.20
2022-08-09T17:48:02.831Z,2.42
2022-08-09T17:51:44.934Z,1.83
2022-08-09T17:55:47.209Z,4.97
2022-08-09T17:59:36.574Z,3.00
2022-08-09T18:03:20.352Z,2.90
2022-08-09T18:07:07.503Z,2.42
2022-08-09T18:11:00.648Z,1.38
2022-08-09T18:14:49.720Z,1.37
2022-08-09T18:18:33.029Z,2.00
2022-08-09T18:22:17.188Z,6.32
2022-08-09T18:26:00.053Z,3.17
2022-08-09T18:30:34.665Z,2.55
2022-08-09T18:33:53.078Z,4.30
2022-08-09T18:37:48.841Z,1.92
2022-08-09T18:41:36.977Z,1.65
2022-08-09T18:46:51.367Z,2.95
2022-08-09T18:49:26.263Z,3.45
2022-08-09T18:53:13.350Z,3.88
2022-08-09T18:56:55.604Z,2.25
2022-08-09T19:00:37.560Z,6.38
2022-08-09T19:04:24.837Z,2.65
2022-08-09T19:08:19.674Z,3.33
2022-08-09T19:12:01.836Z,4.65
2022-08-09T19:15:45.083Z,3.65
2022-08-09T19:19:41.433Z,4.47
2022-08-09T19:24:33.573Z,5.82
2022-08-09T19:27:28.357Z,4.13
2022-08-09T19:31:10.920Z,3.67
2022-08-09T19:34:54.023Z,3.70
2022-08-09T19:38:36.321Z,2.47
2022-08-09T19:42:31.384Z,2.63
2022-08-09T19:46:14.719Z,2.10
2022-08-09T19:50:08.042Z,6.35
2022-08-09T19:54:00.518Z,3.50
2022-08-09T19:57:42.529Z,4.07
2022-08-09T20:01:24.807Z,3.13
2022-08-09T20:05:26.954Z,4.65
2022-08-09T20:09:20.610Z,4.95
2022-08-09T20:13:16.469Z,4.95
2022-08-09T20:17:02.525Z,3.45
2022-08-09T20:20:44.565Z,5.13
2022-08-09T20:24:32.082Z,4.75
2022-08-09T20:28:24.422Z,4.70
2022-08-09T20:32:30.642Z,3.85
2022-08-09T20:36:14.776Z,8.68
2022-08-09T20:40:16.033Z,5.07
2022-08-09T20:44:00.141Z,3.85
2022-08-09T20:47:47.825Z,4.65
2022-08-09T20:51:30.686Z,4.25
2022-08-09T20:55:23.128Z,4.15
2022-08-09T20:59:09.865Z,4.07
2022-08-09T21:02:52.236Z,2.97
2022-08-09T21:06:35.038Z,6.85
2022-08-09T21:10:19.279Z,4.72
2022-08-09T21:14:01.163Z,3.03
2022-08-09T21:18:23.352Z,3.72
2022-08-09T21:21:53.033Z,5.97
2022-08-09T21:25:59.717Z,5.10
2022-08-09T21:29:48.700Z,5.90
2022-08-09T21:33:36.259Z,5.90
2022-08-09T21:37:19.736Z,4.00
2022-08-09T21:41:08.416Z,2.78
2022-08-09T21:44:50.897Z,6.28
2022-08-09T21:48:34.379Z,5.43
2022-08-09T21:52:20.607Z,2.38
2022-08-09T21:56:03.589Z,5.15
2022-08-09T21:59:45.597Z,2.80
2022-08-09T22:03:27.827Z,4.05
2022-08-09T22:07:09.748Z,8.07
2022-08-09T22:11:00.552Z,5.25
2022-08-09T22:14:58.095Z,3.45
2022-08-09T22:18:54.390Z,3.25
2022-08-09T22:22:37.085Z,2.15
2022-08-09T22:26:23.525Z,4.40
2022-08-09T22:30:31.466Z,6.13
2022-08-09T22:34:15.344Z,4.07
2022-08-09T22:38:06.934Z,4.47
2022-08-09T22:41:49.809Z,5.65
2022-08-09T22:48:13.939Z,5.25
2022-08-09T22:49:36.683Z,4.38
2022-08-09T22:53:23.423Z,4.05
2022-08-09T22:57:05.852Z,3.88
2022-08-09T23:00:51.689Z,4.13
2022-08-09T23:04:33.546Z,4.03
2022-08-09T23:08:39.003Z,3.67
2022-08-09T23:12:20.980Z,4.28
2022-08-09T23:16:03.761Z,4.28
2022-08-09T23:20:06.903Z,8.85
2022-08-09T23:24:06.014Z,4.75
2022-08-09T23:27:57.254Z,4.82
2022-08-09T23:31:54.289Z,6.05
2022-08-09T23:36:04.731Z,3.15
2022-08-09T23:39:41.352Z,6.93
2022-08-09T23:43:23.349Z,2.67
2022-08-09T23:47:05.260Z,6.10
2022-08-09T23:50:47.252Z,5.35
2022-08-09T23:54:29.057Z,5.70
2022-08-09T23:58:25.945Z,5.40
